This is the latest recevied weather packets stored in our database for station/object N3NDE. If no packets are shown the sender has not sent any weather packets the latest 1 day(s).
| Time | Temp. | Humidity | Pressure | Rain* | Wind** | Luminosity | Snow |
|---|---|---|---|---|---|---|---|
| 1778093775 | 9.44° C | 40% | 1021.6 hPa | 0 mm | - | 911 W/m² | - |
| 1778093471 | 9.44° C | 38% | 1021.5 hPa | 0 mm | - | 906 W/m² | - |
| 1778091956 | 8.33° C | 45% | 1021.6 hPa | 0 mm | - | 874 W/m² | - |
| 1778091351 | 8.33° C | 44% | 1021.5 hPa | 0 mm | - | 855 W/m² | - |
| 1778090744 | 7.78° C | 41% | 1021.5 hPa | 0 mm | - | 835 W/m² | - |
| 1778090441 | 7.78° C | 44% | 1021.3 hPa | 0 mm | - | 828 W/m² | - |
| 1778090137 | 7.78° C | 41% | 1021.2 hPa | 0 mm | - | 817 W/m² | - |
| 1778089533 | 8.33° C | 38% | 1021.3 hPa | 0 mm | - | 802 W/m² | - |
| 1778088926 | 7.22° C | 45% | 1020.9 hPa | 0 mm | - | 787 W/m² | - |
| 1778088320 | 7.22° C | 48% | 1020.8 hPa | 0 mm | - | 770 W/m² | - |
| 1778088016 | 7.22° C | 42% | 1020.8 hPa | 0 mm | - | 761 W/m² | - |
| 1778087714 | 7.22° C | 36% | 1021 hPa | 0 mm | - | 753 W/m² | - |
| 1778087411 | 7.22° C | 40% | 1020.8 hPa | 0 mm | - | 739 W/m² | - |
| 1778086200 | 6.67° C | 52% | 1020.6 hPa | 0 mm | - | 710 W/m² | - |
| 1778083472 | 5.56° C | 64% | 1020.3 hPa | 0 mm | - | 570 W/m² | - |
| 1778079023 | 3.89° C | 72% | 1019.6 hPa | 0 mm | - | 306 W/m² | - |
| 1778078417 | 3.33° C | 75% | 1019.5 hPa | 0 mm | - | 299 W/m² | - |
| 1778077813 | 2.78° C | 75% | 1019.4 hPa | 0 mm | - | 274 W/m² | - |
| 1778077510 | 2.78° C | 77% | 1019.1 hPa | 0 mm | - | 234 W/m² | - |
| 1778076604 | 2.22° C | 78% | 1019.1 hPa | 0 mm | - | 142 W/m² | - |
| 1778073572 | 2.22° C | 79% | 1018.1 hPa | 0 mm | - | 51 W/m² | - |
| 1778072360 | 1.11° C | 88% | 1017.8 hPa | 0 mm | - | 25 W/m² | - |
| 1778072058 | 0.56° C | 89% | 1017.9 hPa | 0 mm | - | 20 W/m² | - |
| 1778071756 | 0° C | 90% | 1017.8 hPa | 0 mm | - | 17 W/m² | - |
| 1778071453 | 0° C | 90% | 1017.8 hPa | 0 mm | - | 15 W/m² | - |
* Rain latest hour (hover to see other rain measurements)
** Current wind speed in m/s (hover to see current wind gust speed)